Time;durP1;ratioP1;P1;durP2;ratioP2;P2;SDS_P1;SDS_P2;PMS_P1;PMS_P2;Temp;Humidity;BMP_temperature;BMP_pressure;BME280_temperature;BME280_humidity;BME280_pressure;Samples;Min_cycle;Max_cycle;Signal;HPM_P1;HPM_P2
2023/02/16 07:05:32;;;;;;;17.90;6.50;;;;;;;-2.77;89.05;101214.40;112175;1248;23236;-51
2023/02/16 07:07:58;;;;;;;16.70;7.60;;;;;;;-2.68;89.09;101214.20;112476;1249;22261;-52
2023/02/16 07:10:26;;;;;;;11.60;6.70;;;;;;;-2.55;89.34;101215.19;112180;1249;22844;-49
2023/02/16 07:13:06;;;;;;;21.00;7.80;;;;;;;-2.41;89.21;101212.04;112366;1249;23210;-40
2023/02/16 07:15:34;;;;;;;15.00;7.20;;;;;;;-2.30;89.12;101211.09;112696;1249;22336;-41
2023/02/16 07:18:08;;;;;;;11.00;5.60;;;;;;;-2.15;88.74;101212.06;111414;1249;22245;-41
2023/02/16 07:20:38;;;;;;;10.90;6.50;;;;;;;-2.02;88.63;101214.47;111984;1249;22413;-40
2023/02/16 07:23:10;;;;;;;12.90;6.70;;;;;;;-1.81;88.77;101211.86;112505;1249;22658;-41
2023/02/16 07:25:38;;;;;;;10.10;5.30;;;;;;;-1.59;88.44;101209.33;111467;1249;22862;-41
2023/02/16 07:28:06;;;;;;;11.00;5.60;;;;;;;-1.41;87.88;101205.28;111978;1249;23305;-41
2023/02/16 07:30:35;;;;;;;8.50;4.90;;;;;;;-1.26;87.37;101211.05;112376;1249;22579;-44
2023/02/16 07:33:19;;;;;;;10.30;4.60;;;;;;;-1.12;86.22;101207.31;112101;1249;22418;-42
2023/02/16 07:36:06;;;;;;;6.10;3.60;;;;;;;-0.92;85.27;101204.40;112118;1249;22443;-44
2023/02/16 07:38:37;;;;;;;9.90;3.50;;;;;;;-0.77;83.56;101197.38;111881;1249;23122;-43
2023/02/16 07:41:15;;;;;;;6.00;3.40;;;;;;;-0.67;82.39;101193.19;112482;1249;22987;-42
2023/02/16 07:43:47;;;;;;;11.20;4.90;;;;;;;-0.54;81.15;101193.81;112064;1248;22501;-50
2023/02/16 07:46:25;;;;;;;7.80;3.50;;;;;;;-0.48;80.24;101185.91;112128;1248;22533;-42
2023/02/16 07:48:58;;;;;;;11.10;5.30;;;;;;;-0.37;79.51;101182.12;112170;1249;22574;-50
2023/02/16 07:51:27;;;;;;;10.00;5.10;;;;;;;-0.25;78.67;101179.05;112717;1248;23814;-44
2023/02/16 07:53:57;;;;;;;12.40;5.30;;;;;;;-0.15;77.45;101182.33;112149;1248;22502;-40
2023/02/16 07:56:30;;;;;;;11.90;5.20;;;;;;;-0.09;77.13;101184.55;111954;1248;22740;-51
2023/02/16 07:58:59;;;;;;;9.80;4.60;;;;;;;0.09;76.90;101181.80;112124;1249;22581;-52
2023/02/16 08:01:28;;;;;;;11.80;4.60;;;;;;;0.23;75.79;101177.80;112244;1248;24217;-41
2023/02/16 08:03:57;;;;;;;8.00;4.10;;;;;;;0.39;75.28;101178.13;112230;1249;22273;-52
2023/02/16 08:06:26;;;;;;;11.10;4.30;;;;;;;0.50;73.84;101179.98;112381;1249;22185;-50
2023/02/16 08:08:53;;;;;;;8.10;4.20;;;;;;;0.52;73.60;101184.04;112729;1249;22269;-42
2023/02/16 08:11:21;;;;;;;9.70;4.30;;;;;;;0.53;73.24;101184.94;112677;1249;23220;-50
2023/02/16 08:13:49;;;;;;;7.20;3.20;;;;;;;0.46;72.63;101182.16;112715;1249;22266;-43
2023/02/16 08:16:18;;;;;;;12.90;5.20;;;;;;;0.45;72.92;101186.20;112812;1249;22384;-51
2023/02/16 08:18:46;;;;;;;6.00;3.20;;;;;;;0.54;73.04;101178.27;112912;1249;22369;-41
2023/02/16 08:21:15;;;;;;;10.70;4.80;;;;;;;0.69;72.48;101170.33;112833;1249;22470;-42
2023/02/16 08:23:46;;;;;;;4.90;2.50;;;;;;;0.85;72.34;101166.20;112875;1249;23124;-51
2023/02/16 08:26:16;;;;;;;8.60;2.50;;;;;;;1.02;70.95;101169.36;112941;1249;22419;-44
2023/02/16 08:28:46;;;;;;;7.10;2.00;;;;;;;1.11;68.73;101162.42;111876;1248;22401;-50
2023/02/16 08:31:14;;;;;;;5.70;2.20;;;;;;;1.16;67.90;101161.33;112196;1249;24249;-50
2023/02/16 08:33:41;;;;;;;6.50;2.80;;;;;;;1.22;66.90;101161.44;112565;1249;22714;-51
2023/02/16 08:36:33;;;;;;;3.30;1.80;;;;;;;1.30;66.42;101154.46;112857;1248;22390;-51
2023/02/16 08:39:16;;;;;;;7.20;3.00;;;;;;;1.45;66.08;101155.73;111600;1256;22447;-52
2023/02/16 08:41:45;;;;;;;6.50;3.20;;;;;;;1.55;66.49;101153.34;111912;1256;22293;-41
2023/02/16 08:44:13;;;;;;;4.30;2.50;;;;;;;1.61;65.42;101155.15;111221;1256;23964;-42
2023/02/16 08:46:41;;;;;;;3.90;2.30;;;;;;;1.66;65.60;101152.15;111958;1255;22447;-51
2023/02/16 08:49:08;;;;;;;3.80;1.90;;;;;;;1.78;65.55;101151.71;111601;1254;22334;-50
2023/02/16 08:51:43;;;;;;;5.70;2.40;;;;;;;1.96;65.33;101153.42;111986;1256;22396;-50
2023/02/16 08:54:20;;;;;;;4.50;2.50;;;;;;;2.16;65.00;101154.73;111885;1256;22409;-50
2023/02/16 08:56:48;;;;;;;8.50;2.50;;;;;;;2.28;64.66;101152.36;111701;1256;22581;-42
2023/02/16 08:59:17;;;;;;;7.60;3.20;;;;;;;2.32;63.45;101154.14;111379;1256;22494;-42
2023/02/16 09:01:44;;;;;;;4.80;2.30;;;;;;;2.20;62.76;101153.54;111861;1256;22878;-51
2023/02/16 09:04:14;;;;;;;4.10;2.50;;;;;;;2.05;62.96;101157.15;111513;1256;22521;-51
2023/02/16 09:06:45;;;;;;;3.80;2.20;;;;;;;2.00;63.35;101163.60;111724;1256;22407;-42
2023/02/16 09:09:12;;;;;;;7.70;2.30;;;;;;;2.03;63.09;101156.71;111946;1256;22399;-41
2023/02/16 09:11:39;;;;;;;4.30;2.00;;;;;;;2.08;63.17;101156.92;111975;1256;22210;-51
2023/02/16 09:14:11;;;;;;;4.40;1.90;;;;;;;2.07;63.16;101154.48;111998;1256;22239;-41
2023/02/16 09:16:44;;;;;;;4.40;2.20;;;;;;;2.03;62.82;101152.91;112446;1248;22376;-42
2023/02/16 09:19:14;;;;;;;8.70;2.90;;;;;;;1.93;62.58;101150.84;112772;1249;22508;-42
2023/02/16 09:21:41;;;;;;;4.50;2.20;;;;;;;1.81;62.91;101152.70;112690;1249;23183;-50
2023/02/16 09:24:07;;;;;;;7.50;2.20;;;;;;;1.76;63.37;101149.86;112669;1249;22413;-41
2023/02/16 09:26:52;;;;;;;3.30;2.00;;;;;;;1.78;63.37;101144.63;112728;1249;22413;-40
2023/02/16 09:29:20;;;;;;;5.90;2.20;;;;;;;1.81;62.27;101144.80;112851;1249;22262;-43
2023/02/16 09:31:48;;;;;;;6.70;1.70;;;;;;;1.76;61.47;101146.61;112753;1249;22421;-42
2023/02/16 09:34:17;;;;;;;3.90;2.00;;;;;;;1.72;61.17;101147.96;112874;1248;22356;-42
2023/02/16 09:36:44;;;;;;;4.30;2.60;;;;;;;1.73;61.18;101154.20;112855;1249;22242;-42
2023/02/16 09:39:12;;;;;;;5.60;2.30;;;;;;;1.75;61.41;101155.84;112854;1249;22757;-41
2023/02/16 09:41:39;;;;;;;7.50;2.90;;;;;;;1.82;61.67;101150.36;112824;1249;22401;-41
2023/02/16 09:44:32;;;;;;;9.10;2.30;;;;;;;1.92;61.58;101150.80;112659;1249;22369;-50
2023/02/16 09:47:02;;;;;;;6.20;1.90;;;;;;;1.92;60.36;101147.89;112482;1249;22404;-50
2023/02/16 09:49:37;;;;;;;4.60;2.00;;;;;;;1.87;60.68;101148.52;112244;1249;22491;-42
2023/02/16 09:52:07;;;;;;;5.50;2.30;;;;;;;1.90;60.68;101150.54;112501;1248;23568;-41
2023/02/16 09:54:48;;;;;;;5.50;2.10;;;;;;;1.91;60.12;101144.89;112561;1249;22521;-50
2023/02/16 10:01:12;;;;;;;4.90;2.30;;;;;;;1.82;59.99;101133.33;112706;1249;22658;-51
2023/02/16 10:04:37;;;;;;;5.80;2.30;;;;;;;1.82;60.43;101129.02;112735;1248;23557;-41
2023/02/16 10:11:53;;;;;;;8.90;3.30;;;;;;;1.89;59.72;101121.61;112210;1248;22544;-41
2023/02/16 10:14:36;;;;;;;7.50;2.50;;;;;;;1.97;59.35;101125.96;112678;1248;22434;-51
2023/02/16 10:17:06;;;;;;;5.70;3.00;;;;;;;1.96;58.93;101117.64;112549;1248;22321;-44
2023/02/16 10:19:47;;;;;;;10.30;4.20;;;;;;;1.95;59.18;101119.12;112412;1249;23227;-42
2023/02/16 10:22:16;;;;;;;5.30;2.00;;;;;;;1.96;59.36;101120.03;112363;1249;22333;-54
2023/02/16 10:24:50;;;;;;;5.00;1.80;;;;;;;1.93;58.88;101113.38;112581;1249;23431;-50
2023/02/16 10:27:17;;;;;;;6.60;2.70;;;;;;;1.87;58.72;101111.73;112561;1249;22350;-42
2023/02/16 10:29:44;;;;;;;5.80;2.90;;;;;;;1.82;58.24;101109.55;112480;1249;22431;-43
2023/02/16 10:32:11;;;;;;;6.80;3.00;;;;;;;1.78;57.85;101111.79;112866;1248;22422;-42
2023/02/16 10:34:48;;;;;;;5.10;2.00;;;;;;;1.76;56.98;101114.63;112787;1249;22461;-50
2023/02/16 10:37:29;;;;;;;4.20;1.60;;;;;;;1.74;55.73;101109.52;112860;1249;22123;-50
2023/02/16 10:40:09;;;;;;;5.10;1.60;;;;;;;1.73;55.51;101113.42;112770;1249;22256;-42
2023/02/16 10:42:52;;;;;;;7.10;3.40;;;;;;;1.70;55.09;101110.36;112031;1249;22422;-51
2023/02/16 10:45:32;;;;;;;4.40;2.60;;;;;;;1.60;55.49;101109.52;111651;1249;23349;-51
2023/02/16 10:48:00;;;;;;;6.10;2.20;;;;;;;1.50;56.47;101105.77;112081;1249;22461;-42
2023/02/16 10:50:36;;;;;;;5.90;2.10;;;;;;;1.46;57.15;101106.63;112608;1247;24122;-51
2023/02/16 10:53:07;;;;;;;6.00;2.70;;;;;;;1.49;57.60;101106.73;112829;1248;22336;-51
2023/02/16 10:55:41;;;;;;;9.60;2.60;;;;;;;1.55;58.16;101107.27;111893;1249;22452;-45
2023/02/16 10:58:19;;;;;;;7.50;3.20;;;;;;;1.60;58.80;101103.01;111782;1249;22437;-43
2023/02/16 11:01:10;;;;;;;8.30;4.10;;;;;;;1.58;59.12;101094.14;112615;1247;22396;-50
2023/02/16 11:03:43;;;;;;;6.30;3.20;;;;;;;1.53;59.19;101093.73;112488;1247;22263;-40
2023/02/16 11:06:38;;;;;;;7.00;3.70;;;;;;;1.51;59.33;101090.39;112759;1247;22463;-42
2023/02/16 11:09:06;;;;;;;5.90;2.40;;;;;;;1.52;59.17;101091.42;112752;1247;22256;-50
2023/02/16 11:11:38;;;;;;;5.10;2.50;;;;;;;1.52;59.46;101086.98;112917;1247;22408;-40
2023/02/16 11:14:20;;;;;;;9.70;3.60;;;;;;;1.55;59.73;101089.37;112603;1247;22696;-49
2023/02/16 11:16:47;;;;;;;5.60;2.50;;;;;;;1.55;59.12;101092.59;112902;1247;22744;-51
2023/02/16 11:19:23;;;;;;;4.60;2.40;;;;;;;1.53;59.36;101086.17;112441;1247;22427;-43
2023/02/16 11:21:57;;;;;;;5.90;2.40;;;;;;;1.54;59.39;101081.57;112697;1247;22354;-43
2023/02/16 11:24:28;;;;;;;4.10;2.10;;;;;;;1.56;59.67;101080.46;112846;1248;22880;-42
2023/02/16 11:27:17;;;;;;;3.90;2.30;;;;;;;1.60;59.83;101078.75;112437;1247;22535;-52
2023/02/16 11:29:44;;;;;;;5.40;2.30;;;;;;;1.67;60.05;101076.30;112789;1247;23214;-44
2023/02/16 11:32:12;;;;;;;4.30;1.50;;;;;;;1.70;59.21;101072.53;112928;1247;22331;-44
2023/02/16 11:34:41;;;;;;;5.80;2.10;;;;;;;1.69;59.22;101064.90;112865;1247;22419;-44
2023/02/16 11:37:24;;;;;;;5.40;2.70;;;;;;;1.69;59.20;101059.59;112400;1248;22538;-43
2023/02/16 11:39:53;;;;;;;5.60;2.50;;;;;;;1.71;59.11;101054.36;112723;1247;22276;-43
2023/02/16 11:42:31;;;;;;;5.10;2.20;;;;;;;1.73;58.59;101050.28;112600;1244;23068;-44
2023/02/16 11:45:05;;;;;;;4.10;1.60;;;;;;;1.76;59.08;101044.77;112723;1248;23523;-44
2023/02/16 11:47:38;;;;;;;3.90;1.80;;;;;;;1.79;59.06;101039.59;112577;1247;22683;-53
2023/02/16 11:50:05;;;;;;;4.60;1.70;;;;;;;1.85;58.97;101038.16;112586;1247;23137;-52
2023/02/16 11:52:32;;;;;;;4.70;2.70;;;;;;;1.92;59.33;101038.96;112819;1247;22146;-53
2023/02/16 11:55:00;;;;;;;6.60;3.00;;;;;;;1.97;59.27;101036.31;112946;1247;23208;-53
2023/02/16 11:57:32;;;;;;;7.50;2.50;;;;;;;1.99;59.14;101033.45;112853;1247;22803;-44
2023/02/16 12:00:00;;;;;;;2.50;2.00;;;;;;;2.00;59.04;101027.30;112833;1247;23058;-53
2023/02/16 12:02:56;;;;;;;8.00;2.70;;;;;;;2.02;59.38;101014.85;112556;1247;22427;-53
2023/02/16 12:05:46;;;;;;;2.90;1.70;;;;;;;2.08;59.41;101014.79;112865;1247;22607;-42
2023/02/16 12:08:25;;;;;;;4.60;2.10;;;;;;;2.13;59.29;101011.56;112999;1248;22547;-53
2023/02/16 12:11:14;;;;;;;5.40;1.90;;;;;;;2.19;59.52;101011.80;113012;1248;22391;-44
2023/02/16 12:13:53;;;;;;;5.30;2.40;;;;;;;2.21;59.30;101005.91;112945;1247;22404;-44
2023/02/16 12:16:30;;;;;;;7.00;2.70;;;;;;;2.27;59.60;101004.78;112877;1247;22930;-44
2023/02/16 12:19:42;;;;;;;6.10;2.70;;;;;;;2.35;60.10;101004.13;112832;1247;22335;-43
2023/02/16 12:22:13;;;;;;;7.70;2.20;;;;;;;2.41;59.78;101001.97;112932;1247;22386;-44
2023/02/16 12:24:56;;;;;;;4.80;2.80;;;;;;;2.38;59.51;101006.85;112988;1247;22443;-53
2023/02/16 12:27:35;;;;;;;7.10;2.50;;;;;;;2.34;59.99;101003.57;113033;1247;23005;-43
2023/02/16 12:30:10;;;;;;;3.40;2.30;;;;;;;2.31;60.47;101003.44;112992;1247;23062;-44
2023/02/16 12:32:58;;;;;;;8.10;2.90;;;;;;;2.34;60.81;100999.27;113022;1247;22244;-44
